North Platte Regional Airport Lee Bird Field North Platte US
ICAO: KLBF
IATA: LBF
Category: Medium
Scheduled Services: Yes

Elevation: 2777 ft
TransAlt. 18000 ft.

Airport Communications:
ASOS:118.425
CLNC DEL:132.7
DENVER CNTR:132.7
COLUMBUS RDO:122.5
CTAF/UNICOM:123

KLBF Zoom In..

If you have problems with the map follow the link
https://www.worldairports.se/pages/airport.php?
ICAO=KLBF

Runways:

(A) RW 12 length 8001 ft width 150 ft
---- / hdg 117

(B) RW 17 length 4436 ft width 100 ft
---- / hdg 172

(C) RW 30 length 8001 ft width 150 ft
ILS 111.50 / hdg 297

(D) RW 35 length 4436 ft width 100 ft
---- / hdg 352

Location; KLBF
Day. 28 / Time. 12.53 Zulu
* Altimeter: 30.04
* Temperature: 00° c. 32°f.
* Wind from: 000° Speed 00 kn.
Dewpoint: -02° c.
Visibility: 5 Statute Miles.
Clouds: Broken 800 ft.
Clouds: Overcast 1400 ft.
Conditions: Light Snow.Conditions: Mist.

KLBF 281253Z AUTO 00000KT 5SM -SN BR BKN008 OVC014 00/M02 A3004 RMK AO2 SLP194 P0001 T00001017


Wind - Calm.

 
 
jpsmedia worldairports.se 2020   terms of use